createdAt,value
2022-10-24T00:01:16.009Z,15.56
2022-10-24T00:03:42.899Z,15.53
2022-10-24T00:06:11.531Z,15.50
2022-10-24T00:08:39.272Z,15.45
2022-10-24T00:11:35.941Z,15.39
2022-10-24T00:14:03.790Z,15.35
2022-10-24T00:16:30.523Z,15.29
2022-10-24T00:18:57.104Z,15.26
2022-10-24T00:21:23.764Z,15.23
2022-10-24T00:23:50.340Z,15.17
2022-10-24T00:26:17.179Z,15.16
2022-10-24T00:28:44.047Z,15.15
2022-10-24T00:31:15.629Z,15.15
2022-10-24T00:33:43.237Z,15.15
2022-10-24T00:36:14.468Z,15.18
2022-10-24T00:38:41.614Z,15.18
2022-10-24T00:41:08.190Z,15.22
2022-10-24T00:43:34.749Z,15.28
2022-10-24T00:46:03.224Z,15.28
2022-10-24T00:48:40.461Z,15.24
2022-10-24T00:51:30.255Z,15.23
2022-10-24T00:54:01.172Z,15.23
2022-10-24T00:56:31.480Z,15.24
2022-10-24T00:58:59.810Z,15.24
2022-10-24T01:01:26.772Z,15.25
2022-10-24T01:03:53.328Z,15.21
2022-10-24T01:06:39.995Z,15.20
2022-10-24T01:09:24.410Z,15.24
2022-10-24T01:12:07.990Z,15.25
2022-10-24T01:14:58.678Z,15.26
2022-10-24T01:17:27.897Z,15.33
2022-10-24T01:20:32.084Z,15.35
2022-10-24T01:23:24.130Z,15.39
2022-10-24T01:25:59.913Z,15.49
2022-10-24T01:28:48.298Z,15.57
2022-10-24T01:31:29.246Z,15.71
2022-10-24T01:34:03.527Z,15.94
2022-10-24T01:36:47.544Z,16.05
2022-10-24T01:39:18.757Z,16.17
2022-10-24T01:41:47.446Z,16.37
2022-10-24T01:44:21.029Z,16.49
2022-10-24T01:46:58.090Z,16.52
2022-10-24T01:49:29.728Z,16.59
2022-10-24T01:52:01.436Z,16.58
2022-10-24T01:54:29.493Z,16.53
2022-10-24T01:56:56.052Z,16.52
2022-10-24T01:59:28.775Z,16.46
2022-10-24T02:02:01.596Z,16.45
2022-10-24T02:04:32.564Z,16.42
2022-10-24T02:07:04.270Z,16.35
2022-10-24T02:09:34.853Z,16.29
2022-10-24T02:12:01.736Z,16.29
2022-10-24T02:14:33.683Z,16.25
2022-10-24T02:17:02.207Z,16.21
2022-10-24T02:19:30.720Z,16.15
2022-10-24T02:22:02.877Z,16.08
2022-10-24T02:24:35.263Z,16.03
2022-10-24T02:27:09.096Z,15.98
2022-10-24T02:29:54.092Z,15.92
2022-10-24T02:32:41.653Z,15.86
2022-10-24T02:35:10.983Z,15.85
2022-10-24T02:37:42.948Z,15.83
2022-10-24T02:40:12.869Z,15.86
2022-10-24T02:42:42.182Z,15.87
2022-10-24T02:45:12.613Z,15.86
2022-10-24T02:47:41.610Z,15.86
2022-10-24T02:50:09.678Z,15.82
2022-10-24T02:52:38.794Z,15.81
2022-10-24T02:55:06.107Z,15.81
2022-10-24T02:57:32.700Z,15.81
2022-10-24T02:59:59.217Z,15.82
2022-10-24T03:02:26.304Z,15.84
2022-10-24T03:04:52.856Z,15.84
2022-10-24T03:07:19.410Z,15.82
2022-10-24T03:09:45.962Z,15.82
2022-10-24T03:12:18.476Z,15.81
2022-10-24T03:14:45.175Z,15.83
2022-10-24T03:17:11.735Z,15.88
2022-10-24T03:19:38.606Z,15.95
2022-10-24T03:22:05.173Z,16.02
2022-10-24T03:24:43.892Z,16.12
2022-10-24T03:27:18.355Z,16.23
2022-10-24T03:29:44.872Z,16.43
2022-10-24T03:32:11.542Z,16.54
2022-10-24T03:34:38.122Z,16.70
2022-10-24T03:37:04.861Z,16.76
2022-10-24T03:39:31.380Z,16.80
2022-10-24T03:41:57.910Z,16.86
2022-10-24T03:44:24.427Z,16.94
2022-10-24T03:46:50.935Z,17.01
2022-10-24T03:49:17.449Z,17.14
2022-10-24T03:51:43.980Z,17.30
2022-10-24T03:54:11.175Z,17.45
2022-10-24T03:56:37.686Z,17.59
2022-10-24T03:59:04.222Z,17.70
2022-10-24T04:01:30.872Z,17.76
2022-10-24T04:03:57.457Z,17.78
2022-10-24T04:06:23.983Z,17.80
2022-10-24T04:08:50.497Z,17.84
2022-10-24T04:11:17.125Z,17.85
2022-10-24T04:13:43.720Z,17.81
2022-10-24T04:16:10.252Z,17.79
2022-10-24T04:18:36.991Z,17.79
2022-10-24T04:21:04.038Z,17.86
2022-10-24T04:23:34.463Z,17.86
2022-10-24T04:26:01.179Z,17.86
2022-10-24T04:28:29.918Z,17.85
2022-10-24T04:30:57.918Z,17.85
2022-10-24T04:33:24.911Z,17.86
2022-10-24T04:35:52.718Z,17.83
2022-10-24T04:38:19.576Z,17.80
2022-10-24T04:40:48.508Z,17.77
2022-10-24T04:43:15.135Z,17.77
2022-10-24T04:45:41.720Z,17.73
2022-10-24T04:48:08.278Z,17.66
2022-10-24T04:50:35.009Z,17.63
2022-10-24T04:53:01.916Z,17.61
2022-10-24T04:55:29.045Z,17.66
2022-10-24T04:57:55.630Z,17.76
2022-10-24T05:00:22.649Z,17.79
2022-10-24T05:02:49.308Z,17.80
2022-10-24T05:05:17.204Z,17.84
2022-10-24T05:07:45.029Z,17.90
2022-10-24T05:10:14.038Z,17.91
2022-10-24T05:12:40.715Z,17.92
2022-10-24T05:15:08.533Z,17.91
2022-10-24T05:17:35.394Z,17.90
2022-10-24T05:20:02.040Z,17.87
2022-10-24T05:22:28.565Z,17.86
2022-10-24T05:24:55.121Z,17.84
2022-10-24T05:27:24.675Z,17.84
2022-10-24T05:29:52.369Z,17.82
2022-10-24T05:32:19.714Z,17.83
2022-10-24T05:34:46.266Z,17.82
2022-10-24T05:37:12.964Z,17.81
2022-10-24T05:39:39.621Z,17.83
2022-10-24T05:42:06.668Z,17.84
2022-10-24T05:44:33.438Z,17.83
2022-10-24T05:47:00.214Z,17.86
2022-10-24T05:49:26.755Z,17.82
2022-10-24T05:51:53.266Z,17.78
2022-10-24T05:54:19.772Z,17.78
2022-10-24T05:56:46.328Z,17.74
2022-10-24T05:59:13.096Z,17.75
2022-10-24T06:01:40.538Z,17.79
2022-10-24T06:04:10.042Z,17.77
2022-10-24T06:06:41.411Z,17.77
2022-10-24T06:09:08.579Z,17.74
2022-10-24T06:11:35.235Z,17.73
2022-10-24T06:14:02.811Z,17.74
2022-10-24T06:16:30.725Z,17.74
2022-10-24T06:18:57.716Z,17.75
2022-10-24T06:21:24.980Z,17.73
2022-10-24T06:23:51.867Z,17.69
2022-10-24T06:26:21.633Z,17.65
2022-10-24T06:28:50.650Z,17.60
2022-10-24T06:31:18.697Z,17.55
2022-10-24T06:33:45.276Z,17.51
2022-10-24T06:36:12.159Z,17.51
2022-10-24T06:38:38.702Z,17.51
2022-10-24T06:41:14.205Z,17.49
2022-10-24T06:43:42.455Z,17.48
2022-10-24T06:46:10.619Z,17.45
2022-10-24T06:48:38.026Z,17.48
2022-10-24T06:51:05.150Z,17.50
2022-10-24T06:53:32.621Z,17.49
2022-10-24T06:56:03.947Z,17.54
2022-10-24T06:58:32.724Z,17.54
2022-10-24T07:01:00.238Z,17.58
2022-10-24T07:03:26.983Z,17.67
2022-10-24T07:05:53.570Z,17.72
2022-10-24T07:08:20.124Z,17.75
2022-10-24T07:10:46.653Z,17.75
2022-10-24T07:13:13.311Z,17.73
2022-10-24T07:15:39.928Z,17.72
2022-10-24T07:18:06.510Z,17.77
2022-10-24T07:20:33.086Z,17.80
2022-10-24T07:22:59.718Z,17.79
2022-10-24T07:25:26.365Z,17.77
2022-10-24T07:27:54.708Z,17.73
2022-10-24T07:30:21.374Z,17.75
2022-10-24T07:32:48.839Z,17.82
2022-10-24T07:35:15.439Z,17.86
2022-10-24T07:37:42.167Z,17.88
2022-10-24T07:40:09.708Z,17.87
2022-10-24T07:42:36.284Z,17.89
2022-10-24T07:45:03.416Z,17.92
2022-10-24T07:47:30.323Z,17.91
2022-10-24T07:49:57.174Z,17.89
2022-10-24T07:52:24.005Z,17.89
2022-10-24T07:54:53.493Z,17.86
2022-10-24T07:57:20.570Z,17.83
2022-10-24T07:59:47.100Z,17.79
2022-10-24T08:02:15.196Z,17.75
2022-10-24T08:04:42.033Z,17.74
2022-10-24T08:07:13.500Z,17.72
2022-10-24T08:09:42.987Z,17.73
2022-10-24T08:12:10.219Z,17.71
2022-10-24T08:14:38.459Z,17.75
2022-10-24T08:17:05.246Z,17.76
2022-10-24T08:19:33.253Z,17.77
2022-10-24T08:22:00.442Z,17.83
2022-10-24T08:24:27.342Z,17.89
2022-10-24T08:26:55.776Z,17.99
2022-10-24T08:29:23.403Z,18.04
2022-10-24T08:31:51.117Z,18.08
2022-10-24T08:34:17.843Z,18.11
2022-10-24T08:36:44.567Z,18.10
2022-10-24T08:39:11.917Z,18.12
2022-10-24T08:41:57.983Z,18.15
2022-10-24T08:44:31.463Z,18.15
2022-10-24T08:47:15.928Z,18.18
2022-10-24T08:49:50.492Z,18.22
2022-10-24T08:52:48.955Z,18.28
2022-10-24T08:55:44.391Z,18.42
2022-10-24T08:58:07.337Z,18.49
2022-10-24T09:00:41.184Z,18.54
2022-10-24T09:03:17.651Z,18.57
2022-10-24T09:05:56.769Z,18.64
2022-10-24T09:08:35.192Z,18.71
2022-10-24T09:11:04.442Z,18.71
2022-10-24T09:13:35.621Z,18.73
2022-10-24T09:16:02.637Z,18.68
2022-10-24T09:18:34.474Z,18.72
2022-10-24T09:21:02.157Z,18.76
2022-10-24T09:23:28.860Z,18.75
2022-10-24T09:25:57.557Z,18.83
2022-10-24T09:28:24.958Z,18.92
2022-10-24T09:30:52.222Z,19.06
2022-10-24T09:33:35.204Z,19.15
2022-10-24T09:36:04.182Z,19.16
2022-10-24T09:38:36.459Z,19.19
2022-10-24T09:41:26.508Z,19.18
2022-10-24T09:43:58.348Z,19.19
2022-10-24T09:46:49.572Z,19.22
2022-10-24T09:49:20.194Z,19.24
2022-10-24T09:52:00.914Z,19.28
2022-10-24T09:54:32.923Z,19.26
2022-10-24T09:57:03.976Z,19.27
2022-10-24T09:59:30.769Z,19.34
2022-10-24T10:02:34.918Z,19.40
2022-10-24T10:05:04.316Z,19.43
2022-10-24T10:07:34.885Z,19.49
2022-10-24T10:10:06.534Z,19.48
2022-10-24T10:12:42.379Z,19.50
2022-10-24T10:15:36.422Z,19.50
2022-10-24T10:18:39.907Z,19.56
2022-10-24T10:21:12.444Z,19.61
2022-10-24T10:23:50.693Z,19.70
2022-10-24T10:26:22.289Z,19.75
2022-10-24T10:29:03.032Z,19.79
2022-10-24T10:31:50.806Z,19.82
2022-10-24T10:34:22.089Z,19.88
2022-10-24T10:36:54.437Z,19.92
2022-10-24T10:39:45.022Z,19.87
2022-10-24T10:42:41.149Z,19.92
2022-10-24T10:45:13.734Z,19.98
2022-10-24T10:47:54.205Z,20.01
2022-10-24T10:50:34.893Z,20.10
2022-10-24T10:53:32.058Z,20.23
2022-10-24T10:56:27.771Z,20.34
2022-10-24T10:59:36.416Z,20.37
2022-10-24T11:02:21.378Z,20.36
2022-10-24T11:05:03.016Z,20.36
2022-10-24T11:08:01.537Z,20.42
2022-10-24T11:10:35.447Z,20.40
2022-10-24T11:13:07.476Z,20.40
2022-10-24T11:15:40.775Z,20.41
2022-10-24T11:18:30.396Z,20.40
2022-10-24T11:21:03.866Z,20.38
2022-10-24T11:23:37.957Z,20.38
2022-10-24T11:26:13.261Z,20.42
2022-10-24T11:28:40.031Z,20.50
2022-10-24T11:31:15.299Z,20.58
2022-10-24T11:33:46.356Z,20.64
2022-10-24T11:36:20.844Z,20.70
2022-10-24T11:38:58.569Z,20.53
2022-10-24T11:41:39.974Z,20.35
2022-10-24T11:44:24.088Z,20.22
2022-10-24T11:47:06.575Z,20.20
2022-10-24T11:49:36.552Z,20.17
2022-10-24T11:52:23.679Z,20.14
2022-10-24T11:55:16.579Z,20.14
2022-10-24T11:57:46.228Z,20.20
2022-10-24T12:00:25.866Z,20.17
2022-10-24T12:03:11.270Z,20.10
2022-10-24T12:05:43.471Z,20.10
2022-10-24T12:08:26.517Z,20.16
2022-10-24T12:11:22.728Z,20.14
2022-10-24T12:14:23.482Z,20.13
2022-10-24T12:16:56.711Z,20.18
2022-10-24T12:19:24.515Z,20.18
2022-10-24T12:21:57.552Z,20.03
2022-10-24T12:24:38.798Z,19.92
2022-10-24T12:27:08.412Z,19.88
2022-10-24T12:29:36.791Z,19.83
2022-10-24T12:32:23.542Z,19.86
2022-10-24T12:35:28.837Z,19.94
2022-10-24T12:37:49.180Z,20.00
2022-10-24T12:40:55.649Z,20.06
2022-10-24T12:43:30.823Z,20.19
2022-10-24T12:46:09.484Z,20.30
2022-10-24T12:48:37.805Z,20.40
2022-10-24T12:51:34.817Z,20.38
2022-10-24T12:54:13.300Z,20.44
2022-10-24T12:56:49.119Z,20.60
2022-10-24T12:59:46.580Z,20.72
2022-10-24T13:02:13.186Z,20.82
2022-10-24T13:04:52.370Z,20.87
2022-10-24T13:07:21.746Z,20.82
2022-10-24T13:09:51.230Z,20.73
2022-10-24T13:12:17.792Z,20.60
2022-10-24T13:15:03.416Z,20.50
2022-10-24T13:17:45.678Z,20.44
2022-10-24T13:20:20.228Z,20.43
2022-10-24T13:22:48.836Z,20.43
2022-10-24T13:25:33.932Z,20.69
2022-10-24T13:28:27.315Z,20.78
2022-10-24T13:30:59.635Z,20.75
2022-10-24T13:33:28.947Z,20.56
2022-10-24T13:36:24.252Z,20.47
2022-10-24T13:38:59.921Z,20.41
2022-10-24T13:41:48.476Z,20.23
2022-10-24T13:44:25.257Z,20.16
2022-10-24T13:47:13.895Z,20.15
2022-10-24T13:49:50.788Z,20.15
2022-10-24T13:52:22.711Z,20.16
2022-10-24T13:54:56.399Z,20.10
2022-10-24T13:57:24.286Z,20.10
2022-10-24T14:00:00.110Z,20.05
2022-10-24T14:02:32.307Z,20.02
2022-10-24T14:05:00.588Z,20.01
2022-10-24T14:07:30.938Z,19.92
2022-10-24T14:10:07.543Z,19.86
2022-10-24T14:12:36.403Z,19.90
2022-10-24T14:15:03.940Z,19.94
2022-10-24T14:17:33.782Z,19.98
2022-10-24T14:20:11.204Z,19.95
2022-10-24T14:22:41.482Z,19.92
2022-10-24T14:25:33.084Z,20.01
2022-10-24T14:28:03.270Z,20.06
2022-10-24T14:30:33.581Z,20.07
2022-10-24T14:33:23.109Z,20.05
2022-10-24T14:35:53.675Z,20.03
2022-10-24T14:38:24.194Z,20.03
2022-10-24T14:41:06.140Z,20.03
2022-10-24T14:43:37.249Z,20.05
2022-10-24T14:46:13.061Z,20.03
2022-10-24T14:48:45.520Z,20.03
2022-10-24T14:51:39.036Z,20.04
2022-10-24T14:54:17.660Z,20.05
2022-10-24T14:56:44.597Z,20.11
2022-10-24T14:59:35.359Z,20.16
2022-10-24T15:02:20.022Z,20.28
2022-10-24T15:04:47.079Z,20.30
2022-10-24T15:07:28.928Z,20.21
2022-10-24T15:09:57.124Z,20.16
2022-10-24T15:12:41.524Z,20.07
2022-10-24T15:15:43.426Z,19.99
2022-10-24T15:18:31.508Z,19.96
2022-10-24T15:21:07.935Z,19.95
2022-10-24T15:23:46.578Z,19.85
2022-10-24T15:26:23.780Z,19.76
2022-10-24T15:29:13.388Z,19.64
2022-10-24T15:31:43.010Z,19.59
2022-10-24T15:34:15.061Z,19.54
2022-10-24T15:36:42.773Z,19.40
2022-10-24T15:39:15.367Z,19.40
2022-10-24T15:41:42.351Z,19.34
2022-10-24T15:44:16.735Z,19.26
2022-10-24T15:46:44.830Z,19.25
2022-10-24T15:49:11.594Z,19.20
2022-10-24T15:51:39.727Z,19.12
2022-10-24T15:54:06.432Z,19.06
2022-10-24T15:56:33.593Z,19.01
2022-10-24T15:59:00.100Z,18.92
2022-10-24T16:01:36.078Z,18.84
2022-10-24T16:04:05.421Z,18.78
2022-10-24T16:06:32.016Z,18.71
2022-10-24T16:08:58.550Z,18.64
2022-10-24T16:11:25.151Z,18.58
2022-10-24T16:13:51.937Z,18.47
2022-10-24T16:16:18.673Z,18.31
2022-10-24T16:18:45.339Z,18.24
2022-10-24T16:21:21.860Z,18.16
2022-10-24T16:23:48.878Z,18.11
2022-10-24T16:26:15.935Z,18.06
2022-10-24T16:28:42.640Z,18.01
2022-10-24T16:31:09.541Z,17.94
2022-10-24T16:33:36.081Z,17.90
2022-10-24T16:36:02.787Z,17.83
2022-10-24T16:38:31.499Z,17.80
2022-10-24T16:40:58.302Z,17.72
2022-10-24T16:43:24.935Z,17.63
2022-10-24T16:46:02.832Z,17.56
2022-10-24T16:48:30.069Z,17.56
2022-10-24T16:50:56.713Z,17.57
2022-10-24T16:53:24.115Z,17.59
2022-10-24T16:55:53.512Z,17.63
2022-10-24T16:58:21.497Z,17.61
2022-10-24T17:00:48.373Z,17.64
2022-10-24T17:03:15.182Z,17.66
2022-10-24T17:05:44.000Z,17.68
2022-10-24T17:08:10.553Z,17.69
2022-10-24T17:10:38.214Z,17.67
2022-10-24T17:13:07.784Z,17.66
2022-10-24T17:15:34.753Z,17.63
2022-10-24T17:18:01.465Z,17.64
2022-10-24T17:20:28.006Z,17.62
2022-10-24T17:22:54.692Z,17.61
2022-10-24T17:25:24.622Z,17.60
2022-10-24T17:27:51.844Z,17.59
2022-10-24T17:30:24.465Z,17.58
2022-10-24T17:32:51.339Z,17.57
2022-10-24T17:35:20.629Z,17.56
2022-10-24T17:37:50.182Z,17.54
2022-10-24T17:40:22.642Z,17.55
2022-10-24T17:42:49.428Z,17.50
2022-10-24T17:45:25.197Z,17.47
2022-10-24T17:47:51.955Z,17.38
2022-10-24T17:50:19.353Z,17.37
2022-10-24T17:52:51.006Z,17.35
2022-10-24T17:55:44.510Z,17.34
2022-10-24T17:58:09.955Z,17.33
2022-10-24T18:00:36.517Z,17.35
2022-10-24T18:03:04.173Z,17.35
2022-10-24T18:05:30.989Z,17.31
2022-10-24T18:07:58.061Z,17.28
2022-10-24T18:10:24.727Z,17.25
2022-10-24T18:12:51.795Z,17.22
2022-10-24T18:15:21.491Z,17.23
2022-10-24T18:17:48.717Z,17.22
2022-10-24T18:20:16.243Z,17.18
2022-10-24T18:22:44.343Z,17.18
2022-10-24T18:25:13.108Z,17.18
2022-10-24T18:27:40.967Z,17.18
2022-10-24T18:30:08.595Z,17.13
2022-10-24T18:32:35.463Z,17.08
2022-10-24T18:35:02.172Z,17.02
2022-10-24T18:37:28.810Z,16.96
2022-10-24T18:39:55.762Z,16.93
2022-10-24T18:42:25.299Z,16.86
2022-10-24T18:44:52.095Z,16.81
2022-10-24T18:47:23.260Z,16.78
2022-10-24T18:49:52.740Z,16.73
2022-10-24T18:52:24.959Z,16.68
2022-10-24T18:55:10.363Z,16.64
2022-10-24T18:57:37.063Z,16.59
2022-10-24T19:00:05.776Z,16.54
2022-10-24T19:02:43.307Z,16.47
2022-10-24T19:05:17.378Z,16.42
2022-10-24T19:07:45.564Z,16.38
2022-10-24T19:10:30.493Z,16.28
2022-10-24T19:12:57.470Z,16.25
2022-10-24T19:15:24.511Z,16.25
2022-10-24T19:17:51.551Z,16.25
2022-10-24T19:20:21.504Z,16.27
2022-10-24T19:22:48.753Z,16.30
2022-10-24T19:25:16.743Z,16.30
2022-10-24T19:27:43.595Z,16.33
2022-10-24T19:30:11.706Z,16.36
2022-10-24T19:32:38.380Z,16.38
2022-10-24T19:35:05.256Z,16.37
2022-10-24T19:37:31.891Z,16.33
2022-10-24T19:39:58.402Z,16.27
2022-10-24T19:42:25.131Z,16.18
2022-10-24T19:44:54.589Z,16.12
2022-10-24T19:47:21.560Z,16.08
2022-10-24T19:49:49.435Z,16.07
2022-10-24T19:52:15.942Z,16.03
2022-10-24T19:54:42.497Z,15.98
2022-10-24T19:57:09.426Z,15.97
2022-10-24T19:59:36.094Z,15.94
2022-10-24T20:02:03.852Z,15.93
2022-10-24T20:04:30.914Z,15.94
2022-10-24T20:06:57.521Z,15.94
2022-10-24T20:09:24.095Z,15.95
2022-10-24T20:11:50.618Z,15.91
2022-10-24T20:14:17.276Z,15.87
2022-10-24T20:16:43.866Z,15.82
2022-10-24T20:19:10.444Z,15.73
2022-10-24T20:21:37.643Z,15.67
2022-10-24T20:24:04.538Z,15.59
2022-10-24T20:26:31.434Z,15.49
2022-10-24T20:28:58.511Z,15.43
2022-10-24T20:31:30.938Z,15.38
2022-10-24T20:34:04.988Z,15.33
2022-10-24T20:36:35.540Z,15.28
2022-10-24T20:39:02.338Z,15.24
2022-10-24T20:41:29.110Z,15.25
2022-10-24T20:43:56.007Z,15.24
2022-10-24T20:46:22.623Z,15.24
2022-10-24T20:48:49.389Z,15.22
2022-10-24T20:51:18.544Z,15.22
2022-10-24T20:53:45.474Z,15.20
2022-10-24T20:56:18.177Z,15.16
2022-10-24T20:58:45.366Z,15.13
2022-10-24T21:01:13.488Z,15.09
2022-10-24T21:03:40.618Z,15.04
2022-10-24T21:06:16.392Z,14.97
2022-10-24T21:08:43.289Z,14.92
2022-10-24T21:11:13.439Z,14.90
2022-10-24T21:13:39.951Z,14.88
2022-10-24T21:16:06.890Z,14.86
2022-10-24T21:18:33.445Z,14.82
2022-10-24T21:21:06.507Z,14.71
2022-10-24T21:23:33.041Z,14.63
2022-10-24T21:26:08.001Z,14.55
2022-10-24T21:28:35.178Z,14.51
2022-10-24T21:31:10.959Z,14.44
2022-10-24T21:33:38.504Z,14.43
2022-10-24T21:36:07.163Z,14.39
2022-10-24T21:38:34.218Z,14.32
2022-10-24T21:41:04.940Z,14.17
2022-10-24T21:43:36.297Z,14.15
2022-10-24T21:46:07.041Z,14.13
2022-10-24T21:48:34.024Z,14.14
2022-10-24T21:51:21.536Z,14.14
2022-10-24T21:53:53.690Z,14.17
2022-10-24T21:56:29.028Z,14.20
2022-10-24T21:58:59.875Z,14.22
2022-10-24T22:01:29.852Z,14.23
2022-10-24T22:03:58.149Z,14.28
2022-10-24T22:06:26.828Z,14.29
2022-10-24T22:08:54.387Z,14.27
2022-10-24T22:11:23.367Z,14.24
2022-10-24T22:13:50.833Z,14.25
2022-10-24T22:16:20.775Z,14.23
2022-10-24T22:18:48.015Z,14.24
2022-10-24T22:21:35.635Z,14.22
2022-10-24T22:26:34.616Z,14.23
2022-10-24T22:29:01.296Z,14.23
2022-10-24T22:31:29.329Z,14.21
2022-10-24T22:33:57.064Z,14.16
2022-10-24T22:36:35.547Z,14.09
2022-10-24T22:39:02.905Z,14.03
2022-10-24T22:41:29.796Z,13.96
2022-10-24T22:43:57.753Z,13.90
2022-10-24T22:46:55.307Z,13.80
2022-10-24T22:49:53.052Z,13.77
2022-10-24T22:52:20.037Z,13.77
2022-10-24T22:54:46.968Z,13.71
2022-10-24T22:57:13.869Z,13.68
2022-10-24T22:59:40.727Z,13.65
2022-10-24T23:02:07.356Z,13.61
2022-10-24T23:04:52.762Z,13.58
2022-10-24T23:07:51.539Z,13.56
2022-10-24T23:10:21.715Z,13.57
2022-10-24T23:12:49.514Z,13.62
2022-10-24T23:15:18.530Z,13.61
2022-10-24T23:17:46.548Z,13.65
2022-10-24T23:20:28.340Z,13.63
2022-10-24T23:23:09.092Z,13.65
2022-10-24T23:25:50.228Z,13.68
2022-10-24T23:28:47.447Z,13.74
2022-10-24T23:31:14.127Z,13.82
2022-10-24T23:33:40.969Z,13.90
2022-10-24T23:36:15.890Z,13.89
2022-10-24T23:38:42.590Z,13.82
2022-10-24T23:41:11.423Z,13.76
2022-10-24T23:43:38.340Z,13.69
2022-10-24T23:46:19.086Z,13.64
2022-10-24T23:48:55.545Z,13.62
2022-10-24T23:51:37.382Z,13.62
2022-10-24T23:54:06.209Z,13.59
2022-10-24T23:56:33.065Z,13.56
2022-10-24T23:58:59.612Z,13.53
